sensor_id;sensor_type;location;lat;lon;timestamp;P1;durP1;ratioP1;P2;durP2;ratioP2
62796;SDS011;48839;48.546;-4.178;2022-12-07T00:00:55;25.10;;;11.88;;
62796;SDS011;48839;48.546;-4.178;2022-12-07T00:03:29;26.33;;;11.25;;
62796;SDS011;48839;48.546;-4.178;2022-12-07T00:05:58;30.35;;;12.52;;
62796;SDS011;48839;48.546;-4.178;2022-12-07T00:08:24;30.45;;;12.57;;
62796;SDS011;48839;48.546;-4.178;2022-12-07T00:10:50;29.63;;;12.63;;
62796;SDS011;48839;48.546;-4.178;2022-12-07T00:13:17;32.22;;;12.90;;
62796;SDS011;48839;48.546;-4.178;2022-12-07T00:15:43;28.58;;;11.93;;
62796;SDS011;48839;48.546;-4.178;2022-12-07T00:18:09;25.42;;;13.10;;
62796;SDS011;48839;48.546;-4.178;2022-12-07T00:20:35;27.85;;;12.35;;
62796;SDS011;48839;48.546;-4.178;2022-12-07T00:23:01;25.90;;;12.52;;
62796;SDS011;48839;48.546;-4.178;2022-12-07T00:25:28;27.83;;;12.43;;
62796;SDS011;48839;48.546;-4.178;2022-12-07T00:27:54;24.25;;;12.05;;
62796;SDS011;48839;48.546;-4.178;2022-12-07T00:30:21;28.42;;;12.98;;
62796;SDS011;48839;48.546;-4.178;2022-12-07T00:32:47;27.30;;;12.70;;
62796;SDS011;48839;48.546;-4.178;2022-12-07T00:35:14;28.65;;;13.38;;
62796;SDS011;48839;48.546;-4.178;2022-12-07T00:37:40;24.88;;;12.15;;
62796;SDS011;48839;48.546;-4.178;2022-12-07T00:40:06;24.40;;;11.32;;
62796;SDS011;48839;48.546;-4.178;2022-12-07T00:42:32;26.00;;;11.82;;
62796;SDS011;48839;48.546;-4.178;2022-12-07T00:44:58;26.27;;;13.05;;
62796;SDS011;48839;48.546;-4.178;2022-12-07T00:47:24;28.20;;;12.65;;
62796;SDS011;48839;48.546;-4.178;2022-12-07T00:49:50;34.50;;;12.52;;
62796;SDS011;48839;48.546;-4.178;2022-12-07T00:52:16;27.67;;;12.48;;
62796;SDS011;48839;48.546;-4.178;2022-12-07T00:54:42;22.60;;;11.88;;
62796;SDS011;48839;48.546;-4.178;2022-12-07T00:57:08;28.35;;;13.80;;
62796;SDS011;48839;48.546;-4.178;2022-12-07T00:59:34;27.73;;;12.27;;
62796;SDS011;48839;48.546;-4.178;2022-12-07T01:02:00;27.52;;;13.07;;
62796;SDS011;48839;48.546;-4.178;2022-12-07T01:04:26;24.02;;;11.23;;
62796;SDS011;48839;48.546;-4.178;2022-12-07T01:06:52;28.73;;;13.13;;
62796;SDS011;48839;48.546;-4.178;2022-12-07T01:09:18;25.92;;;12.57;;
62796;SDS011;48839;48.546;-4.178;2022-12-07T01:11:44;30.25;;;12.48;;
62796;SDS011;48839;48.546;-4.178;2022-12-07T01:14:10;25.85;;;11.98;;
62796;SDS011;48839;48.546;-4.178;2022-12-07T01:16:36;26.33;;;11.80;;
62796;SDS011;48839;48.546;-4.178;2022-12-07T01:19:05;23.70;;;11.77;;
62796;SDS011;48839;48.546;-4.178;2022-12-07T01:21:32;30.40;;;12.63;;
62796;SDS011;48839;48.546;-4.178;2022-12-07T01:24:01;26.67;;;11.75;;
62796;SDS011;48839;48.546;-4.178;2022-12-07T01:26:27;23.00;;;11.07;;
62796;SDS011;48839;48.546;-4.178;2022-12-07T01:28:53;24.65;;;11.65;;
62796;SDS011;48839;48.546;-4.178;2022-12-07T01:31:21;23.35;;;11.63;;
62796;SDS011;48839;48.546;-4.178;2022-12-07T01:33:48;26.13;;;10.93;;
62796;SDS011;48839;48.546;-4.178;2022-12-07T01:38:40;24.48;;;11.77;;
62796;SDS011;48839;48.546;-4.178;2022-12-07T01:41:06;26.85;;;11.60;;
62796;SDS011;48839;48.546;-4.178;2022-12-07T01:43:33;25.70;;;12.70;;
62796;SDS011;48839;48.546;-4.178;2022-12-07T01:45:59;22.58;;;11.27;;
62796;SDS011;48839;48.546;-4.178;2022-12-07T01:48:27;23.05;;;11.23;;
62796;SDS011;48839;48.546;-4.178;2022-12-07T01:50:55;25.92;;;11.15;;
62796;SDS011;48839;48.546;-4.178;2022-12-07T01:53:22;23.40;;;10.68;;
62796;SDS011;48839;48.546;-4.178;2022-12-07T01:55:51;25.13;;;11.00;;
62796;SDS011;48839;48.546;-4.178;2022-12-07T01:58:17;23.08;;;10.93;;
62796;SDS011;48839;48.546;-4.178;2022-12-07T02:00:44;26.45;;;10.50;;
62796;SDS011;48839;48.546;-4.178;2022-12-07T02:03:11;23.50;;;9.85;;
62796;SDS011;48839;48.546;-4.178;2022-12-07T02:05:40;30.60;;;11.52;;
62796;SDS011;48839;48.546;-4.178;2022-12-07T02:08:07;18.63;;;8.77;;
62796;SDS011;48839;48.546;-4.178;2022-12-07T02:10:33;19.95;;;9.88;;
62796;SDS011;48839;48.546;-4.178;2022-12-07T02:16:17;18.95;;;8.95;;
62796;SDS011;48839;48.546;-4.178;2022-12-07T02:23:41;19.25;;;9.75;;
62796;SDS011;48839;48.546;-4.178;2022-12-07T02:31:23;19.50;;;9.82;;
62796;SDS011;48839;48.546;-4.178;2022-12-07T02:33:52;19.92;;;9.45;;
62796;SDS011;48839;48.546;-4.178;2022-12-07T02:36:21;25.50;;;10.05;;
62796;SDS011;48839;48.546;-4.178;2022-12-07T02:38:53;20.27;;;9.77;;
62796;SDS011;48839;48.546;-4.178;2022-12-07T02:43:48;20.08;;;9.48;;
62796;SDS011;48839;48.546;-4.178;2022-12-07T02:46:23;18.85;;;9.43;;
62796;SDS011;48839;48.546;-4.178;2022-12-07T02:48:51;22.15;;;9.32;;
62796;SDS011;48839;48.546;-4.178;2022-12-07T02:51:18;21.35;;;8.95;;
62796;SDS011;48839;48.546;-4.178;2022-12-07T02:53:45;19.67;;;8.98;;
62796;SDS011;48839;48.546;-4.178;2022-12-07T03:01:20;20.73;;;9.40;;
62796;SDS011;48839;48.546;-4.178;2022-12-07T03:03:57;20.83;;;8.73;;
62796;SDS011;48839;48.546;-4.178;2022-12-07T03:06:34;17.10;;;8.27;;
62796;SDS011;48839;48.546;-4.178;2022-12-07T03:11:48;16.23;;;8.43;;
62796;SDS011;48839;48.546;-4.178;2022-12-07T03:14:24;18.65;;;8.80;;
62796;SDS011;48839;48.546;-4.178;2022-12-07T03:16:58;18.75;;;9.48;;
62796;SDS011;48839;48.546;-4.178;2022-12-07T03:19:26;20.98;;;9.02;;
62796;SDS011;48839;48.546;-4.178;2022-12-07T03:22:11;21.67;;;9.52;;
62796;SDS011;48839;48.546;-4.178;2022-12-07T03:24:48;20.60;;;10.35;;
62796;SDS011;48839;48.546;-4.178;2022-12-07T03:27:34;23.55;;;10.95;;
62796;SDS011;48839;48.546;-4.178;2022-12-07T03:30:03;20.42;;;9.73;;
62796;SDS011;48839;48.546;-4.178;2022-12-07T03:32:34;18.02;;;9.07;;
62796;SDS011;48839;48.546;-4.178;2022-12-07T03:40:32;17.25;;;9.75;;
62796;SDS011;48839;48.546;-4.178;2022-12-07T03:42:59;16.60;;;8.90;;
62796;SDS011;48839;48.546;-4.178;2022-12-07T03:45:44;20.33;;;9.75;;
62796;SDS011;48839;48.546;-4.178;2022-12-07T03:50:46;20.15;;;8.77;;
62796;SDS011;48839;48.546;-4.178;2022-12-07T03:53:18;20.42;;;8.95;;
62796;SDS011;48839;48.546;-4.178;2022-12-07T03:55:45;17.63;;;9.15;;
62796;SDS011;48839;48.546;-4.178;2022-12-07T03:58:14;19.25;;;9.32;;
62796;SDS011;48839;48.546;-4.178;2022-12-07T04:00:42;17.90;;;9.07;;
62796;SDS011;48839;48.546;-4.178;2022-12-07T04:03:08;16.92;;;8.77;;
62796;SDS011;48839;48.546;-4.178;2022-12-07T04:05:34;16.33;;;9.43;;
62796;SDS011;48839;48.546;-4.178;2022-12-07T04:08:00;18.30;;;9.23;;
62796;SDS011;48839;48.546;-4.178;2022-12-07T04:10:26;21.40;;;8.93;;
62796;SDS011;48839;48.546;-4.178;2022-12-07T04:12:52;18.83;;;9.82;;
62796;SDS011;48839;48.546;-4.178;2022-12-07T04:15:19;16.65;;;8.20;;
62796;SDS011;48839;48.546;-4.178;2022-12-07T04:17:45;20.40;;;9.80;;
62796;SDS011;48839;48.546;-4.178;2022-12-07T04:20:11;14.55;;;8.00;;
62796;SDS011;48839;48.546;-4.178;2022-12-07T04:22:37;22.73;;;9.07;;
62796;SDS011;48839;48.546;-4.178;2022-12-07T04:25:03;21.23;;;9.05;;
62796;SDS011;48839;48.546;-4.178;2022-12-07T04:27:29;18.23;;;9.70;;
62796;SDS011;48839;48.546;-4.178;2022-12-07T04:29:55;18.92;;;9.82;;
62796;SDS011;48839;48.546;-4.178;2022-12-07T04:32:22;18.95;;;8.45;;
62796;SDS011;48839;48.546;-4.178;2022-12-07T04:34:48;20.17;;;9.43;;
62796;SDS011;48839;48.546;-4.178;2022-12-07T04:37:14;19.90;;;9.38;;
62796;SDS011;48839;48.546;-4.178;2022-12-07T04:39:40;18.92;;;9.85;;
62796;SDS011;48839;48.546;-4.178;2022-12-07T04:42:06;16.27;;;8.50;;
62796;SDS011;48839;48.546;-4.178;2022-12-07T04:44:32;15.23;;;8.25;;
62796;SDS011;48839;48.546;-4.178;2022-12-07T04:46:58;18.65;;;8.90;;
62796;SDS011;48839;48.546;-4.178;2022-12-07T04:49:24;14.70;;;7.97;;
62796;SDS011;48839;48.546;-4.178;2022-12-07T04:51:51;16.35;;;8.65;;
62796;SDS011;48839;48.546;-4.178;2022-12-07T04:54:17;20.98;;;7.95;;
62796;SDS011;48839;48.546;-4.178;2022-12-07T04:56:43;14.63;;;7.43;;
62796;SDS011;48839;48.546;-4.178;2022-12-07T04:59:10;15.23;;;8.35;;
62796;SDS011;48839;48.546;-4.178;2022-12-07T05:01:36;18.70;;;8.90;;
62796;SDS011;48839;48.546;-4.178;2022-12-07T05:04:02;16.58;;;8.48;;
62796;SDS011;48839;48.546;-4.178;2022-12-07T05:06:28;15.15;;;7.32;;
62796;SDS011;48839;48.546;-4.178;2022-12-07T05:08:54;18.63;;;9.18;;
62796;SDS011;48839;48.546;-4.178;2022-12-07T05:11:20;16.75;;;8.73;;
62796;SDS011;48839;48.546;-4.178;2022-12-07T05:16:31;16.10;;;8.80;;
62796;SDS011;48839;48.546;-4.178;2022-12-07T05:18:57;18.17;;;8.65;;
62796;SDS011;48839;48.546;-4.178;2022-12-07T05:21:23;14.52;;;8.77;;
62796;SDS011;48839;48.546;-4.178;2022-12-07T05:23:49;15.10;;;7.63;;
62796;SDS011;48839;48.546;-4.178;2022-12-07T05:26:16;14.35;;;7.65;;
62796;SDS011;48839;48.546;-4.178;2022-12-07T05:28:42;16.85;;;8.30;;
62796;SDS011;48839;48.546;-4.178;2022-12-07T05:31:08;14.77;;;7.45;;
62796;SDS011;48839;48.546;-4.178;2022-12-07T05:33:34;16.00;;;7.93;;
62796;SDS011;48839;48.546;-4.178;2022-12-07T05:36:00;22.67;;;10.32;;
62796;SDS011;48839;48.546;-4.178;2022-12-07T05:38:32;24.75;;;12.20;;
62796;SDS011;48839;48.546;-4.178;2022-12-07T05:41:01;15.57;;;7.95;;
62796;SDS011;48839;48.546;-4.178;2022-12-07T05:43:28;16.38;;;8.65;;
62796;SDS011;48839;48.546;-4.178;2022-12-07T05:45:54;15.77;;;8.02;;
62796;SDS011;48839;48.546;-4.178;2022-12-07T05:48:20;15.95;;;7.80;;
62796;SDS011;48839;48.546;-4.178;2022-12-07T05:50:49;17.70;;;8.30;;
62796;SDS011;48839;48.546;-4.178;2022-12-07T05:53:15;14.13;;;7.55;;
62796;SDS011;48839;48.546;-4.178;2022-12-07T05:55:42;14.00;;;7.53;;
62796;SDS011;48839;48.546;-4.178;2022-12-07T05:58:08;10.50;;;6.93;;
62796;SDS011;48839;48.546;-4.178;2022-12-07T06:00:55;14.02;;;6.35;;
62796;SDS011;48839;48.546;-4.178;2022-12-07T06:03:22;13.52;;;7.45;;
62796;SDS011;48839;48.546;-4.178;2022-12-07T06:05:48;14.65;;;7.00;;
62796;SDS011;48839;48.546;-4.178;2022-12-07T06:08:14;14.82;;;7.20;;
62796;SDS011;48839;48.546;-4.178;2022-12-07T06:10:40;16.98;;;8.35;;
62796;SDS011;48839;48.546;-4.178;2022-12-07T06:13:07;13.88;;;8.35;;
62796;SDS011;48839;48.546;-4.178;2022-12-07T06:15:35;16.38;;;8.32;;
62796;SDS011;48839;48.546;-4.178;2022-12-07T06:18:01;19.35;;;9.52;;
62796;SDS011;48839;48.546;-4.178;2022-12-07T06:20:27;24.90;;;12.32;;
62796;SDS011;48839;48.546;-4.178;2022-12-07T06:22:53;19.35;;;9.60;;
62796;SDS011;48839;48.546;-4.178;2022-12-07T06:25:19;15.38;;;8.10;;
62796;SDS011;48839;48.546;-4.178;2022-12-07T06:27:45;16.02;;;7.40;;
62796;SDS011;48839;48.546;-4.178;2022-12-07T06:30:11;16.55;;;7.70;;
62796;SDS011;48839;48.546;-4.178;2022-12-07T06:32:37;18.27;;;8.60;;
62796;SDS011;48839;48.546;-4.178;2022-12-07T06:35:03;14.27;;;6.93;;
62796;SDS011;48839;48.546;-4.178;2022-12-07T06:37:30;16.90;;;8.45;;
62796;SDS011;48839;48.546;-4.178;2022-12-07T06:39:56;13.48;;;6.88;;
62796;SDS011;48839;48.546;-4.178;2022-12-07T06:42:22;18.95;;;8.23;;
62796;SDS011;48839;48.546;-4.178;2022-12-07T06:44:48;13.68;;;7.57;;
62796;SDS011;48839;48.546;-4.178;2022-12-07T06:47:14;19.38;;;9.15;;
62796;SDS011;48839;48.546;-4.178;2022-12-07T06:49:40;15.98;;;8.57;;
62796;SDS011;48839;48.546;-4.178;2022-12-07T06:52:06;17.02;;;7.25;;
62796;SDS011;48839;48.546;-4.178;2022-12-07T06:54:32;17.88;;;8.77;;
62796;SDS011;48839;48.546;-4.178;2022-12-07T06:56:58;15.38;;;7.90;;
62796;SDS011;48839;48.546;-4.178;2022-12-07T06:59:24;14.90;;;7.53;;
62796;SDS011;48839;48.546;-4.178;2022-12-07T07:01:50;15.52;;;8.52;;
62796;SDS011;48839;48.546;-4.178;2022-12-07T07:04:16;17.38;;;8.93;;
62796;SDS011;48839;48.546;-4.178;2022-12-07T07:06:42;15.75;;;8.38;;
62796;SDS011;48839;48.546;-4.178;2022-12-07T07:09:08;16.10;;;8.80;;
62796;SDS011;48839;48.546;-4.178;2022-12-07T07:11:34;17.38;;;9.25;;
62796;SDS011;48839;48.546;-4.178;2022-12-07T07:14:00;18.45;;;9.80;;
62796;SDS011;48839;48.546;-4.178;2022-12-07T07:16:27;15.23;;;8.05;;
62796;SDS011;48839;48.546;-4.178;2022-12-07T07:18:53;15.07;;;7.50;;
62796;SDS011;48839;48.546;-4.178;2022-12-07T07:21:19;17.67;;;8.77;;
62796;SDS011;48839;48.546;-4.178;2022-12-07T07:23:45;19.30;;;8.73;;
62796;SDS011;48839;48.546;-4.178;2022-12-07T07:26:11;16.35;;;8.05;;
62796;SDS011;48839;48.546;-4.178;2022-12-07T07:28:37;14.60;;;7.57;;
62796;SDS011;48839;48.546;-4.178;2022-12-07T07:31:03;15.50;;;8.30;;
62796;SDS011;48839;48.546;-4.178;2022-12-07T07:33:29;17.33;;;9.05;;
62796;SDS011;48839;48.546;-4.178;2022-12-07T07:35:55;16.55;;;8.05;;
62796;SDS011;48839;48.546;-4.178;2022-12-07T07:38:21;16.15;;;8.75;;
62796;SDS011;48839;48.546;-4.178;2022-12-07T07:40:47;15.50;;;8.45;;
62796;SDS011;48839;48.546;-4.178;2022-12-07T07:43:13;16.45;;;9.10;;
62796;SDS011;48839;48.546;-4.178;2022-12-07T07:45:39;19.42;;;9.93;;
62796;SDS011;48839;48.546;-4.178;2022-12-07T07:48:05;15.80;;;8.93;;
62796;SDS011;48839;48.546;-4.178;2022-12-07T07:50:31;19.05;;;9.70;;
62796;SDS011;48839;48.546;-4.178;2022-12-07T07:52:57;17.70;;;10.15;;
62796;SDS011;48839;48.546;-4.178;2022-12-07T07:55:24;18.67;;;9.98;;
62796;SDS011;48839;48.546;-4.178;2022-12-07T07:57:50;18.17;;;10.25;;
62796;SDS011;48839;48.546;-4.178;2022-12-07T08:00:16;15.00;;;8.82;;
62796;SDS011;48839;48.546;-4.178;2022-12-07T08:02:42;18.80;;;9.75;;
62796;SDS011;48839;48.546;-4.178;2022-12-07T08:05:08;15.02;;;8.20;;
62796;SDS011;48839;48.546;-4.178;2022-12-07T08:07:35;18.70;;;8.88;;
62796;SDS011;48839;48.546;-4.178;2022-12-07T08:10:01;16.88;;;8.48;;
62796;SDS011;48839;48.546;-4.178;2022-12-07T08:12:27;18.80;;;9.10;;
62796;SDS011;48839;48.546;-4.178;2022-12-07T08:14:53;17.80;;;9.30;;
62796;SDS011;48839;48.546;-4.178;2022-12-07T08:17:19;21.08;;;13.48;;
62796;SDS011;48839;48.546;-4.178;2022-12-07T08:19:45;19.35;;;8.85;;
62796;SDS011;48839;48.546;-4.178;2022-12-07T08:22:11;15.05;;;8.93;;
62796;SDS011;48839;48.546;-4.178;2022-12-07T08:24:37;20.05;;;9.52;;
62796;SDS011;48839;48.546;-4.178;2022-12-07T08:27:03;17.38;;;9.15;;
62796;SDS011;48839;48.546;-4.178;2022-12-07T08:29:29;18.40;;;8.73;;
62796;SDS011;48839;48.546;-4.178;2022-12-07T08:31:55;14.95;;;8.02;;
62796;SDS011;48839;48.546;-4.178;2022-12-07T08:34:21;18.13;;;9.60;;
62796;SDS011;48839;48.546;-4.178;2022-12-07T08:36:47;16.30;;;9.10;;
62796;SDS011;48839;48.546;-4.178;2022-12-07T08:39:13;17.38;;;8.40;;
62796;SDS011;48839;48.546;-4.178;2022-12-07T08:41:39;15.65;;;7.85;;
62796;SDS011;48839;48.546;-4.178;2022-12-07T08:44:05;17.52;;;8.55;;
62796;SDS011;48839;48.546;-4.178;2022-12-07T08:49:04;14.07;;;7.50;;
62796;SDS011;48839;48.546;-4.178;2022-12-07T08:51:30;14.98;;;8.25;;
62796;SDS011;48839;48.546;-4.178;2022-12-07T08:53:57;18.13;;;9.68;;
62796;SDS011;48839;48.546;-4.178;2022-12-07T08:56:25;20.10;;;9.15;;
62796;SDS011;48839;48.546;-4.178;2022-12-07T08:58:51;18.02;;;9.63;;
62796;SDS011;48839;48.546;-4.178;2022-12-07T09:01:17;18.60;;;9.10;;
62796;SDS011;48839;48.546;-4.178;2022-12-07T09:03:43;19.02;;;8.93;;
62796;SDS011;48839;48.546;-4.178;2022-12-07T09:06:09;14.93;;;8.90;;
62796;SDS011;48839;48.546;-4.178;2022-12-07T09:08:40;17.92;;;10.88;;
62796;SDS011;48839;48.546;-4.178;2022-12-07T09:11:07;19.38;;;9.90;;
62796;SDS011;48839;48.546;-4.178;2022-12-07T09:13:33;16.63;;;9.43;;
62796;SDS011;48839;48.546;-4.178;2022-12-07T09:15:59;15.60;;;9.35;;
62796;SDS011;48839;48.546;-4.178;2022-12-07T09:18:26;18.48;;;9.25;;
62796;SDS011;48839;48.546;-4.178;2022-12-07T09:20:52;17.30;;;9.48;;
62796;SDS011;48839;48.546;-4.178;2022-12-07T09:23:18;18.20;;;9.32;;
62796;SDS011;48839;48.546;-4.178;2022-12-07T09:25:44;23.98;;;10.68;;
62796;SDS011;48839;48.546;-4.178;2022-12-07T09:28:10;17.63;;;8.43;;
62796;SDS011;48839;48.546;-4.178;2022-12-07T09:30:36;22.25;;;9.20;;
62796;SDS011;48839;48.546;-4.178;2022-12-07T09:33:02;15.63;;;8.65;;
62796;SDS011;48839;48.546;-4.178;2022-12-07T09:35:28;19.20;;;9.30;;
62796;SDS011;48839;48.546;-4.178;2022-12-07T09:37:54;17.90;;;9.57;;
62796;SDS011;48839;48.546;-4.178;2022-12-07T09:40:21;17.08;;;9.45;;
62796;SDS011;48839;48.546;-4.178;2022-12-07T09:42:48;17.67;;;9.75;;
62796;SDS011;48839;48.546;-4.178;2022-12-07T09:45:22;18.45;;;9.57;;
62796;SDS011;48839;48.546;-4.178;2022-12-07T09:50:21;16.00;;;9.60;;
62796;SDS011;48839;48.546;-4.178;2022-12-07T09:52:49;20.02;;;9.43;;
62796;SDS011;48839;48.546;-4.178;2022-12-07T09:55:16;16.67;;;9.95;;
62796;SDS011;48839;48.546;-4.178;2022-12-07T09:57:44;15.95;;;9.60;;
62796;SDS011;48839;48.546;-4.178;2022-12-07T10:00:15;17.77;;;9.88;;
62796;SDS011;48839;48.546;-4.178;2022-12-07T10:02:43;17.38;;;10.18;;
62796;SDS011;48839;48.546;-4.178;2022-12-07T10:05:12;16.25;;;10.90;;
62796;SDS011;48839;48.546;-4.178;2022-12-07T10:07:39;24.80;;;9.90;;
62796;SDS011;48839;48.546;-4.178;2022-12-07T10:10:28;18.80;;;10.73;;
62796;SDS011;48839;48.546;-4.178;2022-12-07T10:15:37;16.73;;;10.13;;
62796;SDS011;48839;48.546;-4.178;2022-12-07T10:18:13;22.67;;;10.85;;
62796;SDS011;48839;48.546;-4.178;2022-12-07T10:20:42;17.27;;;11.13;;
62796;SDS011;48839;48.546;-4.178;2022-12-07T10:23:13;18.23;;;11.35;;
62796;SDS011;48839;48.546;-4.178;2022-12-07T10:25:39;21.38;;;12.55;;
62796;SDS011;48839;48.546;-4.178;2022-12-07T10:30:34;18.63;;;12.77;;
62796;SDS011;48839;48.546;-4.178;2022-12-07T10:33:48;17.17;;;12.05;;
62796;SDS011;48839;48.546;-4.178;2022-12-07T10:39:30;14.50;;;10.40;;
62796;SDS011;48839;48.546;-4.178;2022-12-07T10:41:31;9.75;;;7.13;;
62796;SDS011;48839;48.546;-4.178;2022-12-07T10:43:57;8.68;;;5.40;;
62796;SDS011;48839;48.546;-4.178;2022-12-07T10:46:39;11.40;;;6.20;;
62796;SDS011;48839;48.546;-4.178;2022-12-07T11:01:44;9.60;;;5.82;;
62796;SDS011;48839;48.546;-4.178;2022-12-07T11:09:32;6.43;;;4.97;;
62796;SDS011;48839;48.546;-4.178;2022-12-07T11:12:12;7.82;;;5.53;;
62796;SDS011;48839;48.546;-4.178;2022-12-07T11:14:54;7.78;;;5.82;;
62796;SDS011;48839;48.546;-4.178;2022-12-07T11:20:02;8.43;;;6.05;;
62796;SDS011;48839;48.546;-4.178;2022-12-07T11:27:24;10.73;;;6.93;;
62796;SDS011;48839;48.546;-4.178;2022-12-07T11:35:08;17.83;;;11.85;;
62796;SDS011;48839;48.546;-4.178;2022-12-07T11:37:37;16.92;;;11.52;;
62796;SDS011;48839;48.546;-4.178;2022-12-07T11:42:46;15.65;;;9.80;;
62796;SDS011;48839;48.546;-4.178;2022-12-07T11:45:49;17.08;;;11.75;;
62796;SDS011;48839;48.546;-4.178;2022-12-07T11:48:10;14.75;;;9.27;;
62796;SDS011;48839;48.546;-4.178;2022-12-07T11:55:41;15.63;;;10.45;;
62796;SDS011;48839;48.546;-4.178;2022-12-07T11:58:18;20.83;;;12.18;;
62796;SDS011;48839;48.546;-4.178;2022-12-07T12:00:47;16.00;;;11.20;;
62796;SDS011;48839;48.546;-4.178;2022-12-07T12:03:15;14.52;;;10.00;;
62796;SDS011;48839;48.546;-4.178;2022-12-07T12:05:43;12.52;;;7.57;;
62796;SDS011;48839;48.546;-4.178;2022-12-07T12:08:23;11.30;;;8.52;;
62796;SDS011;48839;48.546;-4.178;2022-12-07T12:21:16;15.45;;;9.90;;
62796;SDS011;48839;48.546;-4.178;2022-12-07T12:26:47;12.50;;;8.55;;
62796;SDS011;48839;48.546;-4.178;2022-12-07T12:29:02;14.93;;;8.27;;
62796;SDS011;48839;48.546;-4.178;2022-12-07T12:31:34;12.40;;;7.85;;
62796;SDS011;48839;48.546;-4.178;2022-12-07T12:34:03;9.90;;;6.45;;
62796;SDS011;48839;48.546;-4.178;2022-12-07T12:44:03;9.43;;;6.78;;
62796;SDS011;48839;48.546;-4.178;2022-12-07T12:46:50;9.85;;;6.13;;
62796;SDS011;48839;48.546;-4.178;2022-12-07T12:57:46;10.18;;;6.63;;
62796;SDS011;48839;48.546;-4.178;2022-12-07T13:02:48;11.70;;;6.65;;
62796;SDS011;48839;48.546;-4.178;2022-12-07T13:05:19;9.70;;;6.13;;
62796;SDS011;48839;48.546;-4.178;2022-12-07T13:10:21;11.35;;;7.60;;
62796;SDS011;48839;48.546;-4.178;2022-12-07T13:12:57;9.07;;;6.10;;
62796;SDS011;48839;48.546;-4.178;2022-12-07T13:20:51;9.77;;;6.47;;
62796;SDS011;48839;48.546;-4.178;2022-12-07T13:25:59;9.40;;;5.97;;
62796;SDS011;48839;48.546;-4.178;2022-12-07T13:28:32;9.10;;;6.70;;
62796;SDS011;48839;48.546;-4.178;2022-12-07T13:33:24;8.55;;;5.72;;
62796;SDS011;48839;48.546;-4.178;2022-12-07T13:35:53;7.13;;;4.88;;
62796;SDS011;48839;48.546;-4.178;2022-12-07T13:38:22;7.68;;;4.93;;
62796;SDS011;48839;48.546;-4.178;2022-12-07T13:43:27;8.88;;;5.03;;
62796;SDS011;48839;48.546;-4.178;2022-12-07T13:45:59;6.50;;;4.45;;
62796;SDS011;48839;48.546;-4.178;2022-12-07T13:48:32;13.57;;;5.55;;
62796;SDS011;48839;48.546;-4.178;2022-12-07T13:51:00;14.23;;;6.43;;
62796;SDS011;48839;48.546;-4.178;2022-12-07T13:53:26;12.63;;;5.53;;
62796;SDS011;48839;48.546;-4.178;2022-12-07T13:55:55;9.45;;;6.05;;
62796;SDS011;48839;48.546;-4.178;2022-12-07T13:58:21;11.57;;;6.28;;
62796;SDS011;48839;48.546;-4.178;2022-12-07T14:00:48;7.07;;;5.60;;
62796;SDS011;48839;48.546;-4.178;2022-12-07T14:05:40;9.35;;;6.03;;
62796;SDS011;48839;48.546;-4.178;2022-12-07T14:10:37;6.68;;;4.70;;
62796;SDS011;48839;48.546;-4.178;2022-12-07T14:13:22;7.93;;;4.65;;
62796;SDS011;48839;48.546;-4.178;2022-12-07T14:15:51;9.70;;;7.70;;
62796;SDS011;48839;48.546;-4.178;2022-12-07T14:21:02;10.25;;;5.22;;
62796;SDS011;48839;48.546;-4.178;2022-12-07T14:23:28;11.63;;;4.90;;
62796;SDS011;48839;48.546;-4.178;2022-12-07T14:26:03;12.60;;;6.07;;
62796;SDS011;48839;48.546;-4.178;2022-12-07T14:28:31;7.40;;;5.53;;
62796;SDS011;48839;48.546;-4.178;2022-12-07T14:30:57;9.52;;;5.22;;
62796;SDS011;48839;48.546;-4.178;2022-12-07T14:33:24;11.52;;;5.93;;
62796;SDS011;48839;48.546;-4.178;2022-12-07T14:35:50;11.25;;;5.82;;
62796;SDS011;48839;48.546;-4.178;2022-12-07T14:38:20;11.75;;;6.28;;
62796;SDS011;48839;48.546;-4.178;2022-12-07T14:40:46;9.93;;;6.05;;
62796;SDS011;48839;48.546;-4.178;2022-12-07T14:43:14;11.88;;;6.10;;
62796;SDS011;48839;48.546;-4.178;2022-12-07T14:45:40;10.20;;;6.07;;
62796;SDS011;48839;48.546;-4.178;2022-12-07T14:48:10;8.43;;;5.88;;
62796;SDS011;48839;48.546;-4.178;2022-12-07T14:50:38;9.48;;;6.25;;
62796;SDS011;48839;48.546;-4.178;2022-12-07T14:53:14;9.15;;;5.72;;
62796;SDS011;48839;48.546;-4.178;2022-12-07T14:55:40;12.23;;;5.85;;
62796;SDS011;48839;48.546;-4.178;2022-12-07T14:58:11;13.27;;;8.35;;
62796;SDS011;48839;48.546;-4.178;2022-12-07T15:00:37;10.70;;;7.38;;
62796;SDS011;48839;48.546;-4.178;2022-12-07T15:03:03;11.77;;;6.65;;
62796;SDS011;48839;48.546;-4.178;2022-12-07T15:05:29;11.05;;;7.22;;
62796;SDS011;48839;48.546;-4.178;2022-12-07T15:07:55;12.48;;;7.72;;
62796;SDS011;48839;48.546;-4.178;2022-12-07T15:10:26;14.27;;;7.82;;
62796;SDS011;48839;48.546;-4.178;2022-12-07T15:12:55;11.90;;;6.75;;
62796;SDS011;48839;48.546;-4.178;2022-12-07T15:15:40;13.98;;;8.05;;
62796;SDS011;48839;48.546;-4.178;2022-12-07T15:18:06;12.07;;;7.05;;
62796;SDS011;48839;48.546;-4.178;2022-12-07T15:20:32;11.77;;;7.30;;
62796;SDS011;48839;48.546;-4.178;2022-12-07T15:22:58;12.70;;;8.13;;
62796;SDS011;48839;48.546;-4.178;2022-12-07T15:25:24;15.10;;;7.90;;
62796;SDS011;48839;48.546;-4.178;2022-12-07T15:27:50;12.35;;;8.25;;
62796;SDS011;48839;48.546;-4.178;2022-12-07T15:30:17;13.02;;;7.70;;
62796;SDS011;48839;48.546;-4.178;2022-12-07T15:32:43;14.13;;;7.10;;
62796;SDS011;48839;48.546;-4.178;2022-12-07T15:35:09;13.52;;;7.85;;
62796;SDS011;48839;48.546;-4.178;2022-12-07T15:37:35;12.57;;;7.70;;
62796;SDS011;48839;48.546;-4.178;2022-12-07T15:40:01;12.90;;;7.90;;
62796;SDS011;48839;48.546;-4.178;2022-12-07T15:42:27;12.15;;;7.20;;
62796;SDS011;48839;48.546;-4.178;2022-12-07T15:44:53;13.05;;;7.78;;
62796;SDS011;48839;48.546;-4.178;2022-12-07T15:47:28;14.43;;;7.72;;
62796;SDS011;48839;48.546;-4.178;2022-12-07T15:49:54;13.40;;;7.22;;
62796;SDS011;48839;48.546;-4.178;2022-12-07T15:52:20;11.38;;;6.38;;
62796;SDS011;48839;48.546;-4.178;2022-12-07T15:54:47;11.20;;;7.10;;
62796;SDS011;48839;48.546;-4.178;2022-12-07T15:57:13;16.73;;;7.03;;
62796;SDS011;48839;48.546;-4.178;2022-12-07T15:59:39;11.27;;;6.88;;
62796;SDS011;48839;48.546;-4.178;2022-12-07T16:02:05;12.23;;;7.65;;
62796;SDS011;48839;48.546;-4.178;2022-12-07T16:04:31;13.85;;;7.47;;
62796;SDS011;48839;48.546;-4.178;2022-12-07T16:06:57;11.52;;;7.70;;
62796;SDS011;48839;48.546;-4.178;2022-12-07T16:09:23;13.18;;;8.50;;
62796;SDS011;48839;48.546;-4.178;2022-12-07T16:11:50;15.60;;;8.80;;
62796;SDS011;48839;48.546;-4.178;2022-12-07T16:14:17;16.15;;;9.57;;
62796;SDS011;48839;48.546;-4.178;2022-12-07T16:16:43;15.73;;;9.70;;
62796;SDS011;48839;48.546;-4.178;2022-12-07T16:19:09;14.48;;;8.52;;
62796;SDS011;48839;48.546;-4.178;2022-12-07T16:21:36;23.52;;;9.02;;
62796;SDS011;48839;48.546;-4.178;2022-12-07T16:24:02;16.38;;;9.15;;
62796;SDS011;48839;48.546;-4.178;2022-12-07T16:26:30;18.17;;;9.73;;
62796;SDS011;48839;48.546;-4.178;2022-12-07T16:28:56;20.38;;;10.00;;
62796;SDS011;48839;48.546;-4.178;2022-12-07T16:31:23;49.15;;;26.85;;
62796;SDS011;48839;48.546;-4.178;2022-12-07T16:33:49;31.30;;;18.58;;
62796;SDS011;48839;48.546;-4.178;2022-12-07T16:36:16;38.40;;;21.08;;
62796;SDS011;48839;48.546;-4.178;2022-12-07T16:38:42;48.38;;;24.20;;
62796;SDS011;48839;48.546;-4.178;2022-12-07T16:41:09;33.83;;;17.63;;
62796;SDS011;48839;48.546;-4.178;2022-12-07T16:43:35;22.67;;;12.82;;
62796;SDS011;48839;48.546;-4.178;2022-12-07T16:46:01;24.05;;;13.80;;